createdAt,value
2022-12-08T00:01:14.498Z,28.70
2022-12-08T00:03:41.932Z,28.60
2022-12-08T00:07:01.264Z,28.30
2022-12-08T00:09:38.311Z,28.30
2022-12-08T00:12:12.265Z,28.40
2022-12-08T00:14:49.869Z,28.70
2022-12-08T00:17:17.370Z,28.70
2022-12-08T00:19:44.847Z,28.90
2022-12-08T00:22:13.119Z,28.80
2022-12-08T00:24:41.378Z,28.80
2022-12-08T00:27:10.272Z,29.00
2022-12-08T00:29:37.204Z,29.20
2022-12-08T00:32:05.044Z,29.30
2022-12-08T00:34:32.879Z,29.40
2022-12-08T00:37:00.009Z,29.40
2022-12-08T00:39:26.870Z,29.10
2022-12-08T00:42:12.080Z,28.70
2022-12-08T00:44:43.479Z,28.60
2022-12-08T00:47:10.789Z,28.90
2022-12-08T00:49:37.702Z,28.70
2022-12-08T00:52:04.798Z,28.90
2022-12-08T00:54:31.770Z,28.70
2022-12-08T00:56:58.857Z,28.80
2022-12-08T00:59:25.709Z,29.40
2022-12-08T01:01:52.663Z,29.70
2022-12-08T01:04:20.545Z,29.80
2022-12-08T01:06:48.239Z,29.70
2022-12-08T01:09:16.585Z,29.60
2022-12-08T01:11:44.687Z,29.40
2022-12-08T01:14:12.523Z,29.30
2022-12-08T01:16:41.674Z,29.30
2022-12-08T01:19:12.194Z,29.10
2022-12-08T01:21:40.240Z,29.00
2022-12-08T01:24:10.029Z,29.10
2022-12-08T01:26:36.875Z,29.40
2022-12-08T01:29:03.692Z,29.60
2022-12-08T01:31:30.540Z,29.60
2022-12-08T01:33:58.650Z,29.70
2022-12-08T01:36:28.328Z,29.60
2022-12-08T01:38:58.003Z,29.60
2022-12-08T01:41:28.289Z,29.30
2022-12-08T01:44:02.836Z,29.20
2022-12-08T01:46:31.909Z,29.50
2022-12-08T01:49:04.138Z,29.70
2022-12-08T01:51:36.939Z,30.00
2022-12-08T01:54:07.933Z,30.10
2022-12-08T01:56:50.314Z,30.10
2022-12-08T01:59:17.917Z,31.30
2022-12-08T02:01:45.181Z,30.00
2022-12-08T02:04:12.279Z,30.00
2022-12-08T02:06:43.415Z,29.90
2022-12-08T02:09:10.630Z,30.00
2022-12-08T02:11:37.689Z,30.00
2022-12-08T02:14:08.276Z,29.80
2022-12-08T02:17:03.284Z,29.80
2022-12-08T02:19:31.405Z,29.70
2022-12-08T02:22:27.276Z,29.70
2022-12-08T02:25:09.398Z,29.70
2022-12-08T02:27:51.304Z,29.60
2022-12-08T02:30:55.650Z,29.60
2022-12-08T02:33:53.035Z,30.60
2022-12-08T02:36:30.184Z,29.70
2022-12-08T02:39:15.243Z,29.70
2022-12-08T02:41:52.441Z,29.80
2022-12-08T02:45:04.079Z,29.90
2022-12-08T02:47:32.641Z,29.90
2022-12-08T02:49:59.877Z,29.80
2022-12-08T02:52:26.879Z,29.90
2022-12-08T02:54:55.369Z,29.60
2022-12-08T02:57:43.841Z,29.60
2022-12-08T03:00:18.666Z,29.80
2022-12-08T03:02:56.453Z,29.90
2022-12-08T03:05:44.930Z,29.90
2022-12-08T03:08:23.996Z,29.90
2022-12-08T03:11:40.825Z,29.90
2022-12-08T03:14:11.437Z,30.00
2022-12-08T03:16:40.530Z,30.00
2022-12-08T03:19:25.569Z,30.10
2022-12-08T03:22:02.724Z,30.10
2022-12-08T03:24:39.112Z,30.30
2022-12-08T03:27:21.225Z,30.30
2022-12-08T03:29:52.041Z,30.30
2022-12-08T03:32:47.677Z,30.30
2022-12-08T03:35:19.233Z,30.20
2022-12-08T03:37:46.136Z,30.10
2022-12-08T03:40:16.727Z,30.20
2022-12-08T03:42:43.817Z,30.10
2022-12-08T03:45:11.215Z,30.10
2022-12-08T03:47:38.475Z,29.90
2022-12-08T03:50:06.484Z,30.10
2022-12-08T03:52:33.832Z,30.10
2022-12-08T03:55:00.711Z,30.50
2022-12-08T03:57:27.733Z,30.70
2022-12-08T03:59:54.609Z,30.70
2022-12-08T04:02:21.687Z,30.40
2022-12-08T04:04:49.032Z,30.20
2022-12-08T04:07:16.020Z,30.30
2022-12-08T04:09:43.096Z,30.30
2022-12-08T04:12:10.010Z,30.60
2022-12-08T04:14:36.930Z,30.50
2022-12-08T04:17:04.017Z,30.50
2022-12-08T04:19:30.893Z,30.10
2022-12-08T04:21:57.827Z,29.90
2022-12-08T04:24:24.741Z,30.00
2022-12-08T04:26:51.692Z,30.00
2022-12-08T04:29:18.702Z,30.00
2022-12-08T04:31:45.689Z,29.60
2022-12-08T04:34:12.682Z,29.70
2022-12-08T04:36:39.601Z,30.00
2022-12-08T04:39:06.888Z,30.00
2022-12-08T04:41:33.926Z,29.90
2022-12-08T04:44:00.833Z,29.90
2022-12-08T04:46:27.978Z,29.60
2022-12-08T04:48:55.018Z,29.10
2022-12-08T04:51:21.963Z,29.40
2022-12-08T04:53:49.004Z,29.90
2022-12-08T04:56:18.099Z,30.20
2022-12-08T04:58:45.601Z,30.10
2022-12-08T05:01:13.419Z,31.40
2022-12-08T05:03:40.340Z,30.10
2022-12-08T05:06:07.542Z,30.00
2022-12-08T05:08:34.905Z,30.00
2022-12-08T05:11:06.705Z,29.90
2022-12-08T05:13:33.737Z,29.40
2022-12-08T05:16:09.744Z,29.40
2022-12-08T05:18:37.939Z,29.10
2022-12-08T05:21:05.817Z,29.40
2022-12-08T05:23:32.865Z,29.60
2022-12-08T05:25:59.734Z,29.60
2022-12-08T05:28:43.535Z,29.40
2022-12-08T05:31:15.111Z,29.60
2022-12-08T05:33:42.520Z,29.40
2022-12-08T05:36:11.701Z,29.30
2022-12-08T05:38:39.256Z,29.10
2022-12-08T05:41:07.058Z,29.10
2022-12-08T05:43:34.267Z,29.20
2022-12-08T05:46:01.738Z,29.30
2022-12-08T05:48:28.757Z,29.10
2022-12-08T05:50:55.656Z,29.00
2022-12-08T05:53:22.729Z,29.10
2022-12-08T05:55:49.715Z,28.90
2022-12-08T05:58:19.690Z,29.00
2022-12-08T06:00:48.193Z,29.20
2022-12-08T06:03:17.480Z,29.40
2022-12-08T06:05:47.995Z,29.50
2022-12-08T06:08:15.294Z,29.30
2022-12-08T06:10:43.937Z,29.20
2022-12-08T06:13:11.026Z,29.00
2022-12-08T06:15:39.022Z,29.00
2022-12-08T06:18:07.736Z,29.30
2022-12-08T06:20:35.332Z,30.50
2022-12-08T06:23:03.546Z,33.30
2022-12-08T06:25:30.767Z,30.80
2022-12-08T06:27:57.654Z,29.60
2022-12-08T06:30:24.585Z,29.20
2022-12-08T06:32:51.672Z,29.10
2022-12-08T06:35:18.589Z,29.10
2022-12-08T06:37:45.648Z,29.30
2022-12-08T06:40:12.921Z,29.30
2022-12-08T06:42:46.709Z,29.60
2022-12-08T06:45:15.721Z,29.70
2022-12-08T06:47:42.629Z,30.00
2022-12-08T06:50:11.000Z,29.90
2022-12-08T06:52:46.766Z,29.90
2022-12-08T06:55:42.723Z,29.70
2022-12-08T06:58:07.344Z,29.60
2022-12-08T07:00:34.487Z,29.80
2022-12-08T07:03:01.392Z,29.80
2022-12-08T07:05:28.279Z,29.80
2022-12-08T07:07:55.282Z,29.90
2022-12-08T07:10:22.191Z,29.10
2022-12-08T07:12:49.343Z,29.40
2022-12-08T07:15:16.595Z,29.80
2022-12-08T07:17:43.559Z,30.00
2022-12-08T07:20:11.037Z,30.10
2022-12-08T07:22:37.977Z,29.90
2022-12-08T07:25:05.311Z,29.90
2022-12-08T07:27:32.439Z,30.00
2022-12-08T07:29:59.474Z,30.10
2022-12-08T07:32:26.505Z,30.20
2022-12-08T07:34:53.401Z,30.10
2022-12-08T07:37:20.381Z,30.10
2022-12-08T07:39:47.486Z,30.30
2022-12-08T07:42:14.530Z,30.40
2022-12-08T07:44:41.520Z,30.30
2022-12-08T07:47:08.549Z,30.60
2022-12-08T07:49:35.669Z,32.80
2022-12-08T07:52:02.566Z,31.50
2022-12-08T07:54:29.662Z,30.50
2022-12-08T07:56:58.022Z,30.20
2022-12-08T07:59:25.071Z,30.10
2022-12-08T08:02:06.560Z,30.20
2022-12-08T08:04:39.032Z,30.10
2022-12-08T08:07:06.043Z,30.10
2022-12-08T08:09:34.029Z,30.40
2022-12-08T08:12:29.708Z,30.80
2022-12-08T08:14:47.976Z,31.00
2022-12-08T08:17:15.357Z,31.30
2022-12-08T08:19:42.560Z,31.90
2022-12-08T08:22:09.494Z,31.90
2022-12-08T08:24:41.592Z,33.40
2022-12-08T08:27:11.735Z,32.00
2022-12-08T08:29:38.660Z,32.00
2022-12-08T08:32:06.187Z,31.20
2022-12-08T08:34:33.140Z,30.90
2022-12-08T08:37:00.605Z,30.90
2022-12-08T08:39:27.806Z,31.40
2022-12-08T08:41:54.787Z,31.70
2022-12-08T08:44:21.733Z,31.80
2022-12-08T08:46:48.752Z,32.00
2022-12-08T08:49:15.752Z,32.10
2022-12-08T08:51:43.783Z,32.00
2022-12-08T08:54:10.992Z,32.00
2022-12-08T08:56:38.082Z,32.90
2022-12-08T08:59:05.093Z,33.50
2022-12-08T09:01:32.342Z,33.30
2022-12-08T09:03:59.397Z,33.60
2022-12-08T09:06:28.415Z,33.90
2022-12-08T09:08:55.790Z,34.10
2022-12-08T09:11:23.805Z,33.70
2022-12-08T09:13:52.379Z,33.80
2022-12-08T09:16:19.983Z,33.80
2022-12-08T09:18:48.327Z,33.90
2022-12-08T09:21:22.385Z,33.90
2022-12-08T09:23:50.967Z,33.90
2022-12-08T09:26:18.052Z,33.90
2022-12-08T09:28:46.744Z,33.70
2022-12-08T09:31:14.774Z,33.60
2022-12-08T09:33:42.221Z,33.70
2022-12-08T09:36:09.762Z,33.60
2022-12-08T09:38:38.118Z,33.50
2022-12-08T09:41:20.602Z,33.50
2022-12-08T09:44:08.184Z,33.30
2022-12-08T09:46:36.975Z,33.10
2022-12-08T09:49:10.479Z,33.10
2022-12-08T09:51:41.753Z,33.20
2022-12-08T09:54:31.752Z,33.60
2022-12-08T09:57:03.485Z,33.40
2022-12-08T09:59:35.145Z,34.00
2022-12-08T10:02:03.611Z,34.00
2022-12-08T10:04:41.148Z,34.00
2022-12-08T10:07:39.442Z,34.00
2022-12-08T10:10:09.321Z,34.10
2022-12-08T10:12:48.535Z,34.10
2022-12-08T10:15:27.369Z,33.80
2022-12-08T10:17:57.537Z,34.10
2022-12-08T10:20:28.575Z,33.60
2022-12-08T10:23:13.789Z,32.90
2022-12-08T10:25:55.582Z,32.60
2022-12-08T10:28:22.575Z,32.00
2022-12-08T10:30:49.529Z,31.80
2022-12-08T10:33:18.595Z,31.40
2022-12-08T10:35:58.514Z,30.70
2022-12-08T10:38:35.776Z,30.00
2022-12-08T10:41:12.025Z,29.90
2022-12-08T10:43:48.922Z,29.90
2022-12-08T10:46:23.201Z,30.00
2022-12-08T10:48:52.109Z,29.70
2022-12-08T10:51:45.660Z,29.30
2022-12-08T10:54:36.924Z,29.10
2022-12-08T10:57:04.006Z,28.40
2022-12-08T10:59:33.526Z,29.10
2022-12-08T11:02:01.029Z,30.00
2022-12-08T11:04:38.430Z,31.40
2022-12-08T11:07:08.827Z,31.90
2022-12-08T11:09:37.782Z,32.00
2022-12-08T11:12:09.690Z,31.40
2022-12-08T11:14:42.945Z,31.70
2022-12-08T11:17:15.063Z,32.10
2022-12-08T11:19:54.725Z,31.80
2022-12-08T11:22:36.048Z,30.30
2022-12-08T11:25:12.276Z,28.80
2022-12-08T11:27:45.804Z,28.40
2022-12-08T11:30:19.655Z,28.60
2022-12-08T11:32:53.054Z,30.00
2022-12-08T11:35:26.615Z,30.80
2022-12-08T11:38:08.080Z,31.50
2022-12-08T11:40:45.406Z,31.10
2022-12-08T11:43:33.300Z,29.40
2022-12-08T11:46:03.802Z,29.80
2022-12-08T11:48:50.381Z,29.60
2022-12-08T11:51:52.422Z,29.00
2022-12-08T11:54:44.820Z,27.80
2022-12-08T11:57:16.679Z,28.40
2022-12-08T11:59:49.632Z,28.40
2022-12-08T12:02:29.073Z,26.40
2022-12-08T12:04:58.441Z,24.10
2022-12-08T12:08:03.144Z,25.90
2022-12-08T12:10:39.307Z,26.00
2022-12-08T12:13:24.892Z,22.00
2022-12-08T12:16:16.984Z,22.70
2022-12-08T12:18:47.367Z,24.80
2022-12-08T12:21:20.283Z,24.20
2022-12-08T12:23:56.916Z,23.40
2022-12-08T12:26:35.290Z,24.30
2022-12-08T12:29:03.892Z,24.30
2022-12-08T12:31:38.503Z,23.40
2022-12-08T12:34:20.381Z,20.40
2022-12-08T12:36:51.293Z,21.00
2022-12-08T12:39:23.397Z,20.70
2022-12-08T12:41:58.289Z,21.60
2022-12-08T12:44:28.410Z,18.60
2022-12-08T12:46:57.056Z,20.30
2022-12-08T12:49:39.617Z,19.60
2022-12-08T12:52:15.859Z,17.30
2022-12-08T12:55:02.698Z,19.50
2022-12-08T12:57:38.608Z,15.60
2022-12-08T13:00:05.626Z,17.30
2022-12-08T13:02:44.825Z,17.70
2022-12-08T13:05:18.973Z,17.80
2022-12-08T13:07:50.207Z,18.50
2022-12-08T13:10:21.700Z,18.80
2022-12-08T13:13:12.824Z,17.20
2022-12-08T13:15:52.605Z,17.60
2022-12-08T13:18:25.535Z,15.80
2022-12-08T13:21:19.824Z,16.20
2022-12-08T13:24:14.127Z,15.60
2022-12-08T13:26:44.253Z,15.70
2022-12-08T13:29:22.109Z,17.90
2022-12-08T13:31:59.241Z,18.30
2022-12-08T13:34:41.879Z,15.80
2022-12-08T13:37:11.841Z,15.80
2022-12-08T13:40:14.165Z,16.40
2022-12-08T13:42:47.175Z,17.30
2022-12-08T13:46:04.370Z,12.70
2022-12-08T13:57:30.870Z,15.80
2022-12-08T14:00:14.592Z,15.80
2022-12-08T14:02:47.661Z,15.80
2022-12-08T14:05:29.741Z,15.80
2022-12-08T14:08:57.037Z,16.20
2022-12-08T14:11:09.730Z,15.80
2022-12-08T14:13:36.704Z,15.80
2022-12-08T14:16:03.707Z,15.90
2022-12-08T14:18:31.818Z,15.90
2022-12-08T14:21:21.350Z,15.90
2022-12-08T14:23:48.768Z,16.70
2022-12-08T14:26:15.701Z,16.70
2022-12-08T14:28:45.244Z,17.00
2022-12-08T14:31:14.599Z,16.00
2022-12-08T14:33:42.560Z,16.00
2022-12-08T14:36:12.915Z,16.00
2022-12-08T14:38:40.041Z,16.00
2022-12-08T14:41:08.979Z,16.10
2022-12-08T14:43:35.892Z,14.60
2022-12-08T14:46:19.041Z,15.00
2022-12-08T14:48:46.006Z,16.10
2022-12-08T14:51:19.191Z,16.00
2022-12-08T14:53:54.630Z,15.90
2022-12-08T14:56:42.497Z,16.00
2022-12-08T14:59:19.187Z,16.00
2022-12-08T15:01:47.353Z,16.10
2022-12-08T15:04:17.072Z,16.10
2022-12-08T15:06:53.061Z,16.10
2022-12-08T15:09:36.621Z,16.10
2022-12-08T15:12:12.837Z,16.00
2022-12-08T15:14:59.695Z,16.10
2022-12-08T15:17:45.806Z,16.00
2022-12-08T15:20:42.677Z,16.00
2022-12-08T15:23:31.313Z,15.90
2022-12-08T15:25:59.475Z,15.90
2022-12-08T15:28:30.236Z,16.00
2022-12-08T15:30:58.188Z,16.00
2022-12-08T15:33:26.321Z,16.10
2022-12-08T15:35:53.601Z,16.00
2022-12-08T15:38:27.000Z,16.10
2022-12-08T15:40:55.000Z,16.00
2022-12-08T15:43:22.948Z,15.90
2022-12-08T15:45:59.163Z,15.90
2022-12-08T15:48:29.031Z,16.00
2022-12-08T15:50:57.140Z,15.90
2022-12-08T15:53:24.162Z,15.90
2022-12-08T15:56:26.268Z,16.00
2022-12-08T15:58:53.471Z,16.00
2022-12-08T16:01:21.813Z,16.10
2022-12-08T16:09:40.605Z,16.00
2022-12-08T16:15:57.176Z,16.70
2022-12-08T16:18:29.518Z,16.70
2022-12-08T16:23:45.310Z,16.40
2022-12-08T16:27:01.110Z,16.70
2022-12-08T16:29:07.768Z,16.90
2022-12-08T16:31:35.004Z,17.00
2022-12-08T16:34:02.045Z,17.30
2022-12-08T16:36:28.997Z,17.20
2022-12-08T16:38:55.838Z,17.10
2022-12-08T16:41:41.337Z,17.10
2022-12-08T16:44:08.376Z,17.10
2022-12-08T16:46:36.125Z,18.00
2022-12-08T16:49:04.541Z,16.70
2022-12-08T16:51:31.632Z,17.00
2022-12-08T16:53:58.723Z,17.40
2022-12-08T16:56:32.560Z,17.60
2022-12-08T16:58:59.947Z,17.60
2022-12-08T17:01:26.988Z,17.70
2022-12-08T17:04:29.217Z,17.60
2022-12-08T17:06:40.992Z,17.60
2022-12-08T17:09:07.896Z,17.60
2022-12-08T17:11:40.777Z,17.50
2022-12-08T17:14:09.597Z,17.50
2022-12-08T17:16:36.800Z,17.40
2022-12-08T17:19:03.994Z,17.40
2022-12-08T17:21:30.907Z,17.60
2022-12-08T17:23:57.929Z,17.90
2022-12-08T17:26:24.911Z,18.00
2022-12-08T17:29:00.868Z,18.20
2022-12-08T17:31:30.597Z,18.20
2022-12-08T17:34:02.937Z,18.20
2022-12-08T17:36:29.995Z,18.30
2022-12-08T17:38:59.679Z,18.90
2022-12-08T17:41:26.934Z,18.90
2022-12-08T17:43:53.985Z,18.90
2022-12-08T17:46:21.659Z,19.40
2022-12-08T17:48:48.738Z,19.20
2022-12-08T17:51:16.620Z,19.00
2022-12-08T17:53:43.960Z,18.80
2022-12-08T17:56:19.882Z,19.20
2022-12-08T17:58:52.579Z,19.20
2022-12-08T18:01:21.532Z,19.30
2022-12-08T18:03:48.698Z,19.40
2022-12-08T18:06:17.701Z,19.50
2022-12-08T18:08:45.154Z,19.90
2022-12-08T18:11:15.426Z,19.20
2022-12-08T18:13:42.814Z,19.20
2022-12-08T18:16:10.201Z,19.20
2022-12-08T18:18:37.213Z,19.10
2022-12-08T18:21:04.381Z,19.30
2022-12-08T18:23:31.365Z,19.40
2022-12-08T18:25:58.437Z,19.40
2022-12-08T18:28:25.576Z,19.50
2022-12-08T18:30:52.433Z,19.50
2022-12-08T18:33:19.567Z,19.50
2022-12-08T18:35:46.819Z,19.50
2022-12-08T18:38:14.407Z,19.60
2022-12-08T18:40:41.330Z,19.70
2022-12-08T18:43:08.292Z,19.80
2022-12-08T18:45:38.799Z,19.70
2022-12-08T18:48:06.747Z,19.60
2022-12-08T18:50:33.772Z,19.50
2022-12-08T18:53:00.731Z,19.70
2022-12-08T18:55:27.640Z,19.80
2022-12-08T18:57:54.776Z,19.90
2022-12-08T19:00:21.766Z,20.00
2022-12-08T19:02:48.980Z,20.10
2022-12-08T19:05:16.217Z,20.20
2022-12-08T19:07:43.741Z,20.20
2022-12-08T19:10:11.651Z,20.00
2022-12-08T19:12:38.731Z,20.00
2022-12-08T19:15:06.270Z,20.00
2022-12-08T19:17:33.501Z,20.10
2022-12-08T19:20:00.617Z,20.10
2022-12-08T19:22:27.670Z,20.00
2022-12-08T19:24:54.630Z,20.10
2022-12-08T19:27:21.672Z,20.10
2022-12-08T19:29:48.737Z,20.20
2022-12-08T19:32:15.787Z,20.30
2022-12-08T19:34:42.854Z,20.10
2022-12-08T19:37:12.564Z,20.10
2022-12-08T19:39:58.739Z,20.00
2022-12-08T19:42:44.097Z,20.00
2022-12-08T19:45:29.486Z,20.00
2022-12-08T19:47:56.629Z,20.00
2022-12-08T19:50:39.044Z,20.30
2022-12-08T19:53:12.284Z,20.40
2022-12-08T19:55:39.888Z,21.40
2022-12-08T19:58:08.074Z,20.30
2022-12-08T20:00:36.630Z,20.30
2022-12-08T20:03:04.861Z,20.40
2022-12-08T20:05:34.408Z,20.30
2022-12-08T20:08:01.757Z,20.30
2022-12-08T20:10:34.711Z,20.20
2022-12-08T20:13:20.658Z,20.30
2022-12-08T20:15:47.993Z,20.30
2022-12-08T20:18:16.571Z,20.50
2022-12-08T20:20:45.079Z,20.50
2022-12-08T20:23:12.658Z,20.50
2022-12-08T20:25:42.056Z,20.40
2022-12-08T20:28:09.098Z,20.30
2022-12-08T20:30:38.807Z,20.30
2022-12-08T20:33:05.757Z,20.40
2022-12-08T20:35:32.696Z,20.40
2022-12-08T20:37:59.730Z,20.60
2022-12-08T20:40:26.946Z,20.70
2022-12-08T20:42:53.996Z,20.80
2022-12-08T20:45:21.176Z,20.80
2022-12-08T20:47:48.262Z,20.70
2022-12-08T20:50:15.225Z,20.80
2022-12-08T20:52:42.458Z,20.80
2022-12-08T20:55:09.940Z,20.80
2022-12-08T20:57:37.133Z,20.70
2022-12-08T21:00:06.274Z,20.80
2022-12-08T21:02:33.747Z,20.70
2022-12-08T21:05:00.921Z,20.90
2022-12-08T21:07:28.219Z,21.20
2022-12-08T21:09:55.693Z,21.10
2022-12-08T21:12:22.793Z,21.20
2022-12-08T21:14:49.960Z,21.10
2022-12-08T21:17:16.990Z,21.10
2022-12-08T21:19:43.995Z,21.20
2022-12-08T21:22:11.674Z,21.30
2022-12-08T21:24:38.675Z,21.30
2022-12-08T21:27:05.839Z,21.30
2022-12-08T21:29:33.079Z,21.50
2022-12-08T21:32:00.901Z,21.30
2022-12-08T21:34:31.758Z,21.30
2022-12-08T21:36:59.143Z,21.40
2022-12-08T21:39:26.759Z,21.50
2022-12-08T21:42:13.048Z,21.50
2022-12-08T21:44:40.483Z,21.40
2022-12-08T21:47:07.528Z,21.60
2022-12-08T21:49:34.675Z,21.50
2022-12-08T21:52:01.911Z,21.60
2022-12-08T21:54:28.990Z,21.80
2022-12-08T21:56:56.168Z,21.90
2022-12-08T21:59:23.081Z,22.00
2022-12-08T22:01:50.319Z,22.10
2022-12-08T22:04:19.062Z,22.20
2022-12-08T22:06:46.322Z,22.10
2022-12-08T22:09:15.313Z,22.20
2022-12-08T22:11:43.576Z,22.20
2022-12-08T22:14:14.369Z,22.20
2022-12-08T22:16:42.770Z,22.40
2022-12-08T22:19:10.149Z,22.40
2022-12-08T22:21:38.449Z,22.20
2022-12-08T22:24:06.385Z,22.50
2022-12-08T22:26:34.074Z,22.60
2022-12-08T22:29:01.419Z,22.80
2022-12-08T22:31:28.740Z,22.90
2022-12-08T22:33:56.016Z,22.90
2022-12-08T22:36:25.404Z,23.00
2022-12-08T22:38:53.951Z,23.00
2022-12-08T22:41:22.286Z,22.90
2022-12-08T22:43:50.492Z,22.80
2022-12-08T22:46:20.890Z,23.10
2022-12-08T22:48:49.092Z,23.40
2022-12-08T22:51:17.017Z,23.60
2022-12-08T22:53:44.510Z,23.70
2022-12-08T22:56:13.347Z,23.80
2022-12-08T22:58:41.425Z,23.80
2022-12-08T23:01:09.010Z,23.80
2022-12-08T23:03:36.217Z,23.80
2022-12-08T23:06:12.985Z,23.90
2022-12-08T23:08:40.217Z,23.90
2022-12-08T23:11:07.368Z,24.00
2022-12-08T23:13:34.597Z,24.10
2022-12-08T23:16:01.828Z,24.20
2022-12-08T23:18:32.892Z,24.30
2022-12-08T23:21:05.139Z,24.20
2022-12-08T23:23:32.243Z,24.20
2022-12-08T23:25:59.260Z,24.30
2022-12-08T23:28:26.671Z,24.40
2022-12-08T23:30:53.994Z,24.30
2022-12-08T23:33:21.067Z,24.20
2022-12-08T23:35:57.635Z,24.30
2022-12-08T23:38:25.333Z,24.00
2022-12-08T23:40:53.221Z,24.30
2022-12-08T23:43:20.542Z,24.50
2022-12-08T23:45:48.504Z,24.80
2022-12-08T23:48:15.917Z,24.70
2022-12-08T23:50:42.838Z,24.80
2022-12-08T23:53:10.030Z,25.70
2022-12-08T23:55:37.126Z,24.50
2022-12-08T23:58:04.242Z,24.70
